Terminal Aerodrome Forecast
Issued by NWS Tampa Bay Area, FL

Home | Current Version | Previous Version | Text Only | Print | Product List | Glossary On
Versions: 1 2 3 4 5 6 7 8 9 10 11 12 13 14 15 16 17 18 19 20 21 22 23 24 25
000
FTUS42 KTBW 231738
TAFTPA
TAF
KTPA 231738Z 2318/2418 25006KT P6SM SCT040 SCT250
     FM232000 28009KT P6SM VCTS SCT025CB BKN100
     FM240000 30008KT P6SM FEW030 SCT100
     FM240300 29004KT P6SM FEW050 SCT250
     FM241000 25005KT P6SM VCSH BKN020 BKN100
     FM241400 21011KT P6SM SCT035 BKN250=

USA.gov is the U.S. government's official web portal to all federal, state and local government web resources and services.